Time;durP1;ratioP1;P1;durP2;ratioP2;P2;SDS_P1;SDS_P2;PMS_P1;PMS_P2;Temp;Humidity;BMP_temperature;BMP_pressure;BME280_temperature;BME280_humidity;BME280_pressure;Samples;Min_cycle;Max_cycle;Signal;HPM_P1;HPM_P2
2023/09/12 00:02:14;;;;;;;;;;;19.60;82.70;;;;;;5021805;28;20024;-68
2023/09/12 00:04:50;;;;;;;;;;;19.50;82.80;;;;;;5022087;28;19929;-68
2023/09/12 00:07:23;;;;;;;;;;;19.50;82.80;;;;;;5023751;28;19983;-68
2023/09/12 00:09:56;;;;;;;;;;;19.50;82.80;;;;;;5019932;28;19929;-68
2023/09/12 00:12:29;;;;;;;;;;;19.40;82.80;;;;;;5021987;28;19982;-68
2023/09/12 00:14:57;;;;;;;;;;;19.40;82.80;;;;;;5021562;28;19929;-70
2023/09/12 00:17:30;;;;;;;;;;;19.40;82.80;;;;;;5021403;28;20373;-70
2023/09/12 00:20:06;;;;;;;;;;;19.40;82.70;;;;;;5021843;28;19925;-68
2023/09/12 00:22:39;;;;;;;;;;;19.40;82.80;;;;;;5022100;28;19933;-71
2023/09/12 00:25:12;;;;;;;;;;;19.30;82.90;;;;;;5024108;28;19979;-71
2023/09/12 00:27:45;;;;;;;;;;;19.30;82.90;;;;;;5021672;28;19929;-71
2023/09/12 00:30:19;;;;;;;;;;;19.30;82.90;;;;;;5022786;28;19929;-72
2023/09/12 00:32:52;;;;;;;;;;;19.20;82.90;;;;;;5022835;28;19926;-71
2023/09/12 00:35:25;;;;;;;;;;;19.20;82.80;;;;;;5019854;28;19925;-70
2023/09/12 00:37:58;;;;;;;;;;;19.20;82.90;;;;;;5023418;28;20377;-71
2023/09/12 00:40:31;;;;;;;;;;;19.10;82.90;;;;;;5021773;28;19952;-71
2023/09/12 00:43:11;;;;;;;;;;;19.10;83.00;;;;;;5022420;28;19926;-71
2023/09/12 00:45:45;;;;;;;;;;;19.10;83.10;;;;;;5022649;28;19937;-70
2023/09/12 00:48:19;;;;;;;;;;;19.10;83.00;;;;;;5019324;28;19933;-71
2023/09/12 00:50:53;;;;;;;;;;;19.20;82.80;;;;;;5016648;28;19932;-71
2023/09/12 00:53:26;;;;;;;;;;;19.10;82.80;;;;;;5022348;28;19930;-71
2023/09/12 00:56:00;;;;;;;;;;;19.20;82.80;;;;;;5006548;28;19929;-71
2023/09/12 00:58:33;;;;;;;;;;;19.10;82.90;;;;;;5020141;28;19975;-70
2023/09/12 01:01:08;;;;;;;;;;;19.10;83.00;;;;;;5003471;28;19971;-72
2023/09/12 01:03:42;;;;;;;;;;;19.10;83.10;;;;;;5023254;28;20347;-71
2023/09/12 01:06:20;;;;;;;;;;;19.10;83.00;;;;;;5018713;28;19929;-71
2023/09/12 01:08:54;;;;;;;;;;;19.00;83.20;;;;;;5005056;28;19929;-70
2023/09/12 01:11:28;;;;;;;;;;;19.00;83.20;;;;;;5022082;28;20388;-71
2023/09/12 01:14:01;;;;;;;;;;;19.00;83.10;;;;;;5022082;28;19966;-71
2023/09/12 01:16:36;;;;;;;;;;;19.00;83.30;;;;;;5021467;28;20275;-71
2023/09/12 01:19:10;;;;;;;;;;;19.00;83.30;;;;;;5021459;28;20287;-70
2023/09/12 01:22:07;;;;;;;;;;;19.00;83.30;;;;;;5004786;28;19930;-71
2023/09/12 01:24:53;;;;;;;;;;;18.90;83.30;;;;;;4966720;28;20318;-71
2023/09/12 01:27:29;;;;;;;;;;;18.90;83.20;;;;;;5021568;28;19932;-72
2023/09/12 01:30:04;;;;;;;;;;;18.90;83.20;;;;;;5004008;28;19937;-72
2023/09/12 01:32:38;;;;;;;;;;;18.90;83.20;;;;;;5010841;28;20380;-71
2023/09/12 01:35:11;;;;;;;;;;;18.80;83.20;;;;;;5022155;28;20055;-72
2023/09/12 01:37:44;;;;;;;;;;;18.80;83.20;;;;;;5022690;28;19960;-71
2023/09/12 01:40:18;;;;;;;;;;;18.70;83.20;;;;;;5019244;28;19929;-71
2023/09/12 01:42:53;;;;;;;;;;;18.70;83.30;;;;;;5021246;28;19929;-72
2023/09/12 01:45:27;;;;;;;;;;;18.70;83.20;;;;;;5021196;28;19929;-71
2023/09/12 01:48:01;;;;;;;;;;;18.70;83.20;;;;;;5019981;28;20020;-71
2023/09/12 01:50:35;;;;;;;;;;;18.70;83.20;;;;;;5005107;28;20380;-72
2023/09/12 01:53:08;;;;;;;;;;;18.70;83.20;;;;;;5022739;28;19929;-72
2023/09/12 01:55:42;;;;;;;;;;;18.70;83.20;;;;;;5023835;28;19932;-72
2023/09/12 01:58:17;;;;;;;;;;;18.60;83.20;;;;;;4999453;28;20261;-71
2023/09/12 02:00:44;;;;;;;;;;;18.70;83.20;;;;;;5017134;28;20376;-71
2023/09/12 02:03:16;;;;;;;;;;;18.60;83.20;;;;;;5021043;28;19933;-72
2023/09/12 02:05:49;;;;;;;;;;;18.60;83.20;;;;;;5019785;28;19929;-72
2023/09/12 02:08:22;;;;;;;;;;;18.60;83.10;;;;;;5005211;28;19939;-71
2023/09/12 02:10:55;;;;;;;;;;;18.60;83.20;;;;;;5022577;28;20019;-71
2023/09/12 02:13:30;;;;;;;;;;;18.60;83.00;;;;;;5021259;28;19929;-72
2023/09/12 02:16:03;;;;;;;;;;;18.60;83.00;;;;;;5020285;28;20018;-71
2023/09/12 02:18:36;;;;;;;;;;;18.60;82.80;;;;;;5003901;28;19928;-71
2023/09/12 02:21:03;;;;;;;;;;;18.50;83.00;;;;;;5020282;28;20264;-71
2023/09/12 02:23:36;;;;;;;;;;;18.50;83.00;;;;;;5019537;28;19929;-72
2023/09/12 02:26:09;;;;;;;;;;;18.50;83.20;;;;;;5018394;28;19956;-72
2023/09/12 02:28:44;;;;;;;;;;;18.50;83.30;;;;;;5018519;28;19929;-71
2023/09/12 02:31:17;;;;;;;;;;;18.50;83.30;;;;;;5004346;28;20016;-71
2023/09/12 02:33:44;;;;;;;;;;;18.50;83.40;;;;;;5020737;28;19925;-72
2023/09/12 02:36:17;;;;;;;;;;;18.50;83.50;;;;;;5020609;28;19936;-71
2023/09/12 02:38:50;;;;;;;;;;;18.50;83.40;;;;;;5021065;28;20327;-71
2023/09/12 02:41:17;;;;;;;;;;;18.50;83.50;;;;;;5019065;28;20299;-68
2023/09/12 02:43:52;;;;;;;;;;;18.50;83.50;;;;;;5006279;28;20024;-68
2023/09/12 02:46:24;;;;;;;;;;;18.50;83.40;;;;;;5004174;28;19973;-68
2023/09/12 02:48:57;;;;;;;;;;;18.40;83.40;;;;;;5002209;28;19929;-68
2023/09/12 02:51:30;;;;;;;;;;;18.40;83.40;;;;;;5019975;28;20520;-68
2023/09/12 02:54:03;;;;;;;;;;;18.40;83.30;;;;;;5003547;28;19929;-68
2023/09/12 02:56:36;;;;;;;;;;;18.30;83.30;;;;;;5019123;28;19991;-69
2023/09/12 02:59:11;;;;;;;;;;;18.30;83.40;;;;;;5020168;28;19944;-67
2023/09/12 03:01:43;;;;;;;;;;;18.30;83.30;;;;;;5018024;28;19925;-69
2023/09/12 03:04:16;;;;;;;;;;;18.30;83.30;;;;;;5020443;28;19963;-69
2023/09/12 03:06:49;;;;;;;;;;;18.30;83.20;;;;;;5020266;28;19965;-68
2023/09/12 03:09:24;;;;;;;;;;;18.30;83.00;;;;;;5009657;28;19936;-69
2023/09/12 03:11:57;;;;;;;;;;;18.30;83.00;;;;;;5020622;28;19928;-68
2023/09/12 03:14:32;;;;;;;;;;;18.30;83.10;;;;;;5007756;28;19929;-70
2023/09/12 03:17:06;;;;;;;;;;;18.20;83.20;;;;;;5018803;28;19965;-69
2023/09/12 03:19:40;;;;;;;;;;;18.30;83.00;;;;;;5014352;28;19933;-69
2023/09/12 03:22:12;;;;;;;;;;;18.30;82.90;;;;;;5010885;28;19965;-69
2023/09/12 03:24:39;;;;;;;;;;;18.30;83.10;;;;;;5002068;28;20550;-69
2023/09/12 03:27:12;;;;;;;;;;;18.30;83.00;;;;;;5019801;28;20043;-69
2023/09/12 03:29:48;;;;;;;;;;;18.20;83.20;;;;;;5017372;28;19963;-69
2023/09/12 03:32:21;;;;;;;;;;;18.20;83.30;;;;;;5010016;28;19929;-69
2023/09/12 03:34:54;;;;;;;;;;;18.20;83.30;;;;;;5005631;28;19933;-69
2023/09/12 03:37:28;;;;;;;;;;;18.20;83.50;;;;;;5002708;28;19929;-69
2023/09/12 03:40:04;;;;;;;;;;;18.20;83.60;;;;;;5022440;28;19929;-69
2023/09/12 03:42:37;;;;;;;;;;;18.10;83.60;;;;;;5021901;28;19929;-69
2023/09/12 03:45:12;;;;;;;;;;;18.10;83.70;;;;;;5022096;28;19937;-69
2023/09/12 03:47:46;;;;;;;;;;;18.20;83.60;;;;;;5006614;28;20300;-69
2023/09/12 03:50:19;;;;;;;;;;;18.10;83.60;;;;;;5011413;28;19925;-69
2023/09/12 03:52:52;;;;;;;;;;;18.10;83.80;;;;;;5006625;28;19971;-71
2023/09/12 03:55:25;;;;;;;;;;;18.10;83.80;;;;;;5021701;28;20003;-71
2023/09/12 03:57:58;;;;;;;;;;;18.10;83.70;;;;;;5021837;28;19925;-70
2023/09/12 04:00:33;;;;;;;;;;;18.10;83.70;;;;;;5022592;28;19935;-70
2023/09/12 04:03:13;;;;;;;;;;;18.10;83.60;;;;;;5023729;28;20802;-70
2023/09/12 04:05:47;;;;;;;;;;;18.10;83.70;;;;;;5022610;28;19970;-70
2023/09/12 04:08:13;;;;;;;;;;;18.10;83.70;;;;;;5005672;28;19933;-70
2023/09/12 04:10:46;;;;;;;;;;;18.10;83.80;;;;;;5003710;28;20320;-70
2023/09/12 04:13:13;;;;;;;;;;;18.10;83.60;;;;;;5021620;28;19933;-70
2023/09/12 04:15:48;;;;;;;;;;;18.10;83.40;;;;;;5018438;28;19933;-70
2023/09/12 04:18:21;;;;;;;;;;;18.10;83.40;;;;;;5007017;28;19925;-70
2023/09/12 04:20:55;;;;;;;;;;;18.10;83.30;;;;;;5012469;28;19925;-70
2023/09/12 04:23:28;;;;;;;;;;;18.10;83.40;;;;;;5010998;28;19929;-70
2023/09/12 04:26:03;;;;;;;;;;;18.10;83.50;;;;;;5003897;28;20309;-70
2023/09/12 04:28:37;;;;;;;;;;;18.00;83.60;;;;;;5021853;28;19925;-70
2023/09/12 04:31:12;;;;;;;;;;;18.00;83.60;;;;;;5028745;28;20019;-71
2023/09/12 04:33:46;;;;;;;;;;;17.90;83.70;;;;;;5002076;28;19990;-70
2023/09/12 04:36:19;;;;;;;;;;;17.90;83.60;;;;;;5021900;28;19936;-70
2023/09/12 04:38:53;;;;;;;;;;;17.90;83.70;;;;;;5005348;28;19925;-70
2023/09/12 04:41:26;;;;;;;;;;;17.90;83.80;;;;;;5019025;28;20592;-70
2023/09/12 04:44:02;;;;;;;;;;;18.00;83.80;;;;;;5019779;28;19925;-70
2023/09/12 04:46:36;;;;;;;;;;;17.90;84.00;;;;;;5020350;28;19930;-70
2023/09/12 04:49:09;;;;;;;;;;;17.90;84.00;;;;;;5022039;28;19986;-70
2023/09/12 04:51:43;;;;;;;;;;;18.00;84.00;;;;;;5020662;28;19961;-70
2023/09/12 04:54:16;;;;;;;;;;;18.00;83.90;;;;;;5007014;28;19983;-69
2023/09/12 04:56:50;;;;;;;;;;;18.00;83.90;;;;;;5005679;28;19929;-70
2023/09/12 04:59:23;;;;;;;;;;;18.00;83.90;;;;;;5004007;28;19933;-70
2023/09/12 05:01:52;;;;;;;;;;;17.90;84.00;;;;;;5021328;28;19956;-72
2023/09/12 05:04:25;;;;;;;;;;;18.00;84.00;;;;;;5011574;28;20331;-72
2023/09/12 05:06:58;;;;;;;;;;;18.00;84.00;;;;;;5019998;28;19929;-71
2023/09/12 05:09:31;;;;;;;;;;;18.00;84.00;;;;;;5021343;28;19929;-72
2023/09/12 05:12:05;;;;;;;;;;;18.10;83.90;;;;;;5023709;28;19933;-72
2023/09/12 05:14:38;;;;;;;;;;;18.10;83.80;;;;;;5019310;28;20392;-72
2023/09/12 05:17:13;;;;;;;;;;;18.10;84.00;;;;;;5020747;28;20299;-72
2023/09/12 05:19:46;;;;;;;;;;;18.10;84.10;;;;;;5023052;28;20012;-73
2023/09/12 05:22:19;;;;;;;;;;;18.10;84.20;;;;;;5019185;28;19936;-72
2023/09/12 05:24:52;;;;;;;;;;;18.10;84.20;;;;;;5003975;28;20307;-71
2023/09/12 05:27:25;;;;;;;;;;;18.10;84.10;;;;;;5019310;28;19936;-72
2023/09/12 05:29:58;;;;;;;;;;;18.20;83.90;;;;;;5022250;28;19967;-71
2023/09/12 05:32:33;;;;;;;;;;;18.20;83.70;;;;;;5011061;28;19979;-72
2023/09/12 05:35:07;;;;;;;;;;;18.20;84.00;;;;;;5023090;28;19925;-72
2023/09/12 05:37:40;;;;;;;;;;;18.20;84.20;;;;;;5003773;28;19929;-72
2023/09/12 05:40:13;;;;;;;;;;;18.20;84.00;;;;;;5020898;28;20392;-70
2023/09/12 05:42:47;;;;;;;;;;;18.20;83.90;;;;;;5003148;28;19969;-71
2023/09/12 05:45:19;;;;;;;;;;;18.30;84.00;;;;;;5020330;28;19949;-71
2023/09/12 05:47:48;;;;;;;;;;;18.30;84.10;;;;;;5017997;28;20048;-71
2023/09/12 05:50:20;;;;;;;;;;;18.30;84.10;;;;;;5015680;28;19925;-73
2023/09/12 05:52:53;;;;;;;;;;;18.40;84.20;;;;;;5004345;28;19947;-72
2023/09/12 05:55:26;;;;;;;;;;;18.40;84.10;;;;;;5019165;28;19926;-72
2023/09/12 05:57:59;;;;;;;;;;;18.40;84.10;;;;;;5020718;28;20443;-72
2023/09/12 06:00:34;;;;;;;;;;;18.50;84.10;;;;;;5010419;28;19929;-72
2023/09/12 06:03:09;;;;;;;;;;;18.50;84.00;;;;;;5020175;28;19924;-72
2023/09/12 06:05:42;;;;;;;;;;;18.50;84.00;;;;;;5019314;28;19926;-72
2023/09/12 06:08:15;;;;;;;;;;;18.50;83.90;;;;;;5019853;28;19933;-71
2023/09/12 06:10:49;;;;;;;;;;;18.50;83.90;;;;;;5019640;28;19925;-71
2023/09/12 06:13:21;;;;;;;;;;;18.40;84.10;;;;;;5020126;28;19933;-69
2023/09/12 06:15:54;;;;;;;;;;;18.50;84.00;;;;;;5020799;28;19925;-70
2023/09/12 06:18:31;;;;;;;;;;;18.60;84.00;;;;;;5021159;28;20036;-69
2023/09/12 06:21:06;;;;;;;;;;;18.60;83.80;;;;;;5021131;28;19956;-70
2023/09/12 06:23:39;;;;;;;;;;;18.60;83.90;;;;;;5020440;28;20972;-70
2023/09/12 06:26:12;;;;;;;;;;;18.50;84.00;;;;;;5023314;28;19956;-70
2023/09/12 06:28:44;;;;;;;;;;;18.60;84.30;;;;;;5021389;28;19926;-70
2023/09/12 06:31:17;;;;;;;;;;;18.60;84.40;;;;;;5020570;28;19944;-70
2023/09/12 06:33:52;;;;;;;;;;;18.60;84.00;;;;;;5022339;28;19936;-70
2023/09/12 06:36:18;;;;;;;;;;;18.70;84.20;;;;;;5021952;28;20396;-69
2023/09/12 06:38:51;;;;;;;;;;;18.70;84.20;;;;;;5021076;28;19929;-69
2023/09/12 06:41:25;;;;;;;;;;;18.80;83.20;;;;;;5020027;28;19961;-70
2023/09/12 06:43:58;;;;;;;;;;;18.90;83.80;;;;;;5020729;28;19925;-70
2023/09/12 06:46:35;;;;;;;;;;;18.90;83.80;;;;;;5020154;28;19936;-69
2023/09/12 06:49:10;;;;;;;;;;;18.90;83.40;;;;;;5018485;28;20027;-70
2023/09/12 06:51:43;;;;;;;;;;;18.90;83.50;;;;;;5021446;28;19925;-70
2023/09/12 06:54:16;;;;;;;;;;;19.00;83.60;;;;;;5020409;28;19952;-70
2023/09/12 06:56:49;;;;;;;;;;;19.00;83.50;;;;;;5020260;28;19925;-69
2023/09/12 06:59:22;;;;;;;;;;;19.10;83.90;;;;;;5020938;28;19929;-69
2023/09/12 07:01:49;;;;;;;;;;;19.20;83.30;;;;;;5021195;28;19929;-69
2023/09/12 07:04:24;;;;;;;;;;;19.20;83.10;;;;;;5021001;28;19933;-70
2023/09/12 07:06:57;;;;;;;;;;;19.20;83.90;;;;;;5027261;28;19933;-69
2023/09/12 07:09:30;;;;;;;;;;;19.30;83.90;;;;;;5022986;28;20325;-69
2023/09/12 07:12:05;;;;;;;;;;;19.40;83.70;;;;;;5024762;28;20036;-69
2023/09/12 07:14:38;;;;;;;;;;;19.50;83.60;;;;;;5024836;28;19983;-69
2023/09/12 07:17:11;;;;;;;;;;;19.60;83.60;;;;;;5025051;28;19933;-69
2023/09/12 07:19:46;;;;;;;;;;;19.60;83.30;;;;;;5023830;28;20361;-69
2023/09/12 07:22:19;;;;;;;;;;;19.70;83.20;;;;;;5025515;28;19971;-70
2023/09/12 07:24:52;;;;;;;;;;;19.60;82.90;;;;;;5021035;28;20273;-71
2023/09/12 07:27:25;;;;;;;;;;;19.70;83.30;;;;;;5022214;28;20669;-71
2023/09/12 07:29:58;;;;;;;;;;;19.80;83.20;;;;;;5023264;28;19995;-71
2023/09/12 07:32:31;;;;;;;;;;;19.80;83.30;;;;;;5025285;28;19932;-71
2023/09/12 07:35:06;;;;;;;;;;;19.80;83.00;;;;;;5023733;28;19939;-71
2023/09/12 07:41:15;;;;;;;;;;;19.80;83.40;;;;;;5982357;22;20697;-70
2023/09/12 07:43:48;;;;;;;;;;;20.00;82.90;;;;;;5015969;28;19929;-69
2023/09/12 07:46:15;;;;;;;;;;;20.10;83.30;;;;;;5022484;28;19990;-70
2023/09/12 07:48:48;;;;;;;;;;;20.30;82.90;;;;;;5028323;28;20419;-71
2023/09/12 07:51:24;;;;;;;;;;;20.40;83.00;;;;;;5028480;28;19941;-70
2023/09/12 07:53:57;;;;;;;;;;;20.50;83.10;;;;;;5031486;28;19936;-71
2023/09/12 07:56:30;;;;;;;;;;;20.60;83.20;;;;;;5029034;28;20462;-70
2023/09/12 07:59:04;;;;;;;;;;;20.60;82.50;;;;;;5031542;28;20331;-69
2023/09/12 08:01:36;;;;;;;;;;;20.60;82.50;;;;;;5027397;28;20295;-70
2023/09/12 08:04:03;;;;;;;;;;;20.70;82.70;;;;;;5026904;28;19933;-70
2023/09/12 08:06:38;;;;;;;;;;;20.80;82.60;;;;;;5028213;28;19933;-70
2023/09/12 08:09:10;;;;;;;;;;;20.80;82.40;;;;;;5028563;28;19932;-70
2023/09/12 08:11:43;;;;;;;;;;;20.90;82.30;;;;;;5029462;28;20379;-70
2023/09/12 08:14:16;;;;;;;;;;;21.10;82.30;;;;;;5030207;28;19932;-70
2023/09/12 08:16:49;;;;;;;;;;;21.10;82.10;;;;;;5024847;28;20034;-70
2023/09/12 08:19:22;;;;;;;;;;;21.10;82.10;;;;;;5030378;28;19925;-71
2023/09/12 08:21:57;;;;;;;;;;;21.20;82.10;;;;;;5024215;28;20027;-71
2023/09/12 08:24:30;;;;;;;;;;;21.20;81.80;;;;;;5030451;28;20019;-69
2023/09/12 08:27:04;;;;;;;;;;;21.30;81.70;;;;;;5030792;28;19937;-70
2023/09/12 08:29:38;;;;;;;;;;;21.30;82.10;;;;;;5031378;28;19972;-71
2023/09/12 08:32:11;;;;;;;;;;;21.40;82.80;;;;;;5031200;28;19928;-70
2023/09/12 08:34:44;;;;;;;;;;;21.60;82.40;;;;;;5030956;28;19925;-70
2023/09/12 08:37:19;;;;;;;;;;;21.80;82.60;;;;;;5027765;28;19933;-71
2023/09/12 08:39:56;;;;;;;;;;;22.00;82.10;;;;;;5028486;28;19929;-70
2023/09/12 08:42:29;;;;;;;;;;;22.20;80.70;;;;;;5026194;28;19925;-71
2023/09/12 08:45:04;;;;;;;;;;;22.40;79.40;;;;;;5021948;28;19984;-71
2023/09/12 08:47:37;;;;;;;;;;;22.60;79.10;;;;;;5025015;28;19940;-71
2023/09/12 08:50:04;;;;;;;;;;;22.80;79.20;;;;;;5025316;28;20002;-71
2023/09/12 08:52:38;;;;;;;;;;;22.90;78.70;;;;;;5025308;28;20387;-71
2023/09/12 08:55:12;;;;;;;;;;;23.00;78.70;;;;;;5021641;28;19933;-71
2023/09/12 08:57:47;;;;;;;;;;;23.10;78.20;;;;;;5022984;28;19928;-71
2023/09/12 09:00:22;;;;;;;;;;;23.20;77.70;;;;;;5023497;28;20391;-71
2023/09/12 09:02:56;;;;;;;;;;;23.40;77.50;;;;;;5023770;28;20376;-73
2023/09/12 09:05:23;;;;;;;;;;;23.60;77.10;;;;;;5024416;28;19929;-71
2023/09/12 09:07:59;;;;;;;;;;;23.60;76.50;;;;;;5023153;28;19971;-69
2023/09/12 09:10:32;;;;;;;;;;;23.70;76.20;;;;;;5023015;28;19925;-70
2023/09/12 09:13:06;;;;;;;;;;;23.90;75.60;;;;;;5021809;28;20375;-70
2023/09/12 09:15:47;;;;;;;;;;;24.00;75.00;;;;;;5020530;28;20304;-69
2023/09/12 09:18:19;;;;;;;;;;;24.10;74.30;;;;;;5021487;28;19971;-70
2023/09/12 09:20:52;;;;;;;;;;;24.30;73.90;;;;;;5021736;28;19935;-69
2023/09/12 09:23:27;;;;;;;;;;;24.50;73.40;;;;;;5020461;28;19934;-68
2023/09/12 09:26:00;;;;;;;;;;;24.50;73.40;;;;;;5022404;28;19951;-69
2023/09/12 09:28:33;;;;;;;;;;;24.60;73.30;;;;;;5022371;28;20016;-70
2023/09/12 09:31:10;;;;;;;;;;;24.60;73.20;;;;;;5021182;28;19929;-69
2023/09/12 09:33:48;;;;;;;;;;;24.70;72.70;;;;;;5020426;28;20043;-69
2023/09/12 09:36:21;;;;;;;;;;;24.80;72.50;;;;;;5022768;28;19933;-68
2023/09/12 09:38:59;;;;;;;;;;;24.80;72.20;;;;;;5022650;28;19936;-68
2023/09/12 09:41:33;;;;;;;;;;;24.90;71.80;;;;;;5022194;28;20264;-70
2023/09/12 09:44:07;;;;;;;;;;;25.00;72.10;;;;;;5022047;28;19960;-71
2023/09/12 09:46:43;;;;;;;;;;;25.10;71.80;;;;;;5023705;28;19943;-69
2023/09/12 09:49:17;;;;;;;;;;;25.20;71.40;;;;;;5023899;28;20019;-68
2023/09/12 09:51:50;;;;;;;;;;;25.20;71.20;;;;;;5022797;28;19925;-67
2023/09/12 09:54:27;;;;;;;;;;;25.30;71.00;;;;;;5021630;28;20276;-70
2023/09/12 09:57:00;;;;;;;;;;;25.30;70.70;;;;;;5022392;28;19925;-69
2023/09/12 09:59:33;;;;;;;;;;;25.50;70.70;;;;;;5023433;28;19925;-69
2023/09/12 10:02:08;;;;;;;;;;;25.50;70.30;;;;;;5024846;28;19932;-68
2023/09/12 10:04:42;;;;;;;;;;;25.60;70.10;;;;;;5021963;28;19929;-68
2023/09/12 10:07:16;;;;;;;;;;;25.60;69.90;;;;;;5018846;28;19932;-69
2023/09/12 10:09:51;;;;;;;;;;;25.60;69.90;;;;;;5022228;28;19964;-68
2023/09/12 10:12:25;;;;;;;;;;;25.60;69.70;;;;;;5022629;28;20307;-68
2023/09/12 10:15:00;;;;;;;;;;;25.60;69.40;;;;;;5021101;28;19933;-69
2023/09/12 10:17:36;;;;;;;;;;;25.60;69.70;;;;;;5022956;28;19925;-68
2023/09/12 10:20:14;;;;;;;;;;;25.60;69.60;;;;;;5022507;28;19939;-69
2023/09/12 10:22:52;;;;;;;;;;;25.80;69.20;;;;;;5023060;28;19926;-66
2023/09/12 10:25:26;;;;;;;;;;;25.90;69.40;;;;;;5023159;28;19925;-67
2023/09/12 10:27:59;;;;;;;;;;;26.00;68.70;;;;;;5023678;28;19933;-67
2023/09/12 10:30:33;;;;;;;;;;;26.10;68.60;;;;;;5021440;28;19925;-66
2023/09/12 10:33:07;;;;;;;;;;;26.20;68.10;;;;;;5023060;28;19940;-67
2023/09/12 10:35:41;;;;;;;;;;;26.20;68.10;;;;;;5023223;28;19990;-66
2023/09/12 10:38:14;;;;;;;;;;;26.30;67.90;;;;;;5023111;28;19956;-67
2023/09/12 10:40:49;;;;;;;;;;;26.40;67.70;;;;;;5022999;28;19979;-66
2023/09/12 10:43:24;;;;;;;;;;;26.40;67.80;;;;;;5021613;28;20024;-67
2023/09/12 10:45:59;;;;;;;;;;;26.50;67.60;;;;;;5022377;28;19929;-67
2023/09/12 10:48:33;;;;;;;;;;;26.50;67.50;;;;;;5020160;28;19925;-66
2023/09/12 10:51:07;;;;;;;;;;;26.60;67.10;;;;;;5018920;28;19930;-67
2023/09/12 10:53:48;;;;;;;;;;;26.70;66.80;;;;;;5023204;28;19929;-67
2023/09/12 10:56:29;;;;;;;;;;;26.70;66.40;;;;;;5021276;28;19944;-67
2023/09/12 10:59:14;;;;;;;;;;;26.80;66.40;;;;;;5023256;28;19991;-66
2023/09/12 11:01:48;;;;;;;;;;;26.80;66.20;;;;;;5017467;28;19931;-66
2023/09/12 11:04:33;;;;;;;;;;;26.90;66.10;;;;;;5022216;28;20024;-66
2023/09/12 11:07:22;;;;;;;;;;;26.90;66.00;;;;;;5022371;28;20016;-68
2023/09/12 11:10:10;;;;;;;;;;;26.90;65.90;;;;;;5022382;28;19932;-67
2023/09/12 11:12:45;;;;;;;;;;;26.90;66.10;;;;;;5023598;28;19956;-67
2023/09/12 11:15:20;;;;;;;;;;;27.00;65.90;;;;;;5018766;28;20012;-68
2023/09/12 11:17:47;;;;;;;;;;;27.00;65.40;;;;;;5025133;28;19933;-66
2023/09/12 11:20:20;;;;;;;;;;;26.90;65.80;;;;;;5022683;28;19936;-67
2023/09/12 11:22:54;;;;;;;;;;;27.00;65.40;;;;;;5023595;28;19933;-67
2023/09/12 11:25:27;;;;;;;;;;;27.00;65.50;;;;;;5022059;28;20372;-67
2023/09/12 11:28:06;;;;;;;;;;;27.00;65.10;;;;;;5021675;28;19979;-66
2023/09/12 11:30:55;;;;;;;;;;;27.00;65.50;;;;;;5020477;28;19926;-67
2023/09/12 11:33:29;;;;;;;;;;;27.10;65.40;;;;;;5019313;28;20024;-70
2023/09/12 11:36:08;;;;;;;;;;;27.10;65.40;;;;;;5021628;28;19972;-71
2023/09/12 11:38:42;;;;;;;;;;;27.10;65.10;;;;;;5022334;28;20007;-71
2023/09/12 11:41:15;;;;;;;;;;;27.10;64.70;;;;;;5022337;28;19972;-71
2023/09/12 11:43:49;;;;;;;;;;;27.10;65.30;;;;;;5021809;28;20364;-71
2023/09/12 11:46:23;;;;;;;;;;;27.20;65.20;;;;;;5020371;28;19933;-71
2023/09/12 11:48:57;;;;;;;;;;;27.20;65.10;;;;;;5023411;28;19937;-70
2023/09/12 11:51:30;;;;;;;;;;;27.10;64.40;;;;;;5024176;28;19933;-70
2023/09/12 11:54:04;;;;;;;;;;;27.10;64.80;;;;;;5027230;28;19936;-70
2023/09/12 11:56:39;;;;;;;;;;;27.20;65.00;;;;;;5024961;28;19975;-71
2023/09/12 11:59:21;;;;;;;;;;;27.10;65.30;;;;;;5027737;28;19925;-70
2023/09/12 12:01:55;;;;;;;;;;;27.20;65.40;;;;;;5025629;28;19968;-70
2023/09/12 12:04:29;;;;;;;;;;;27.10;65.30;;;;;;5024963;28;19980;-71
2023/09/12 12:07:02;;;;;;;;;;;27.10;65.00;;;;;;5026886;28;19925;-70
2023/09/12 12:09:36;;;;;;;;;;;27.10;65.20;;;;;;5025879;28;19952;-70
2023/09/12 12:12:10;;;;;;;;;;;27.00;65.20;;;;;;5023541;28;20447;-70
2023/09/12 12:14:45;;;;;;;;;;;27.00;65.50;;;;;;5025117;28;19929;-70
2023/09/12 12:17:12;;;;;;;;;;;26.90;64.80;;;;;;5026163;28;19933;-70
2023/09/12 12:19:46;;;;;;;;;;;27.00;65.50;;;;;;5025215;28;19929;-70
2023/09/12 12:22:20;;;;;;;;;;;27.00;65.30;;;;;;5023486;28;20021;-70
2023/09/12 12:24:47;;;;;;;;;;;27.00;65.20;;;;;;5024262;28;19929;-69
2023/09/12 12:27:21;;;;;;;;;;;27.00;65.30;;;;;;5023673;28;19936;-71
2023/09/12 12:29:56;;;;;;;;;;;27.00;65.70;;;;;;5021945;28;19937;-70
2023/09/12 12:32:29;;;;;;;;;;;27.00;65.70;;;;;;5019936;28;19932;-70
2023/09/12 12:35:03;;;;;;;;;;;27.00;64.80;;;;;;5026379;28;19925;-70
2023/09/12 12:37:37;;;;;;;;;;;27.00;65.20;;;;;;5024308;28;19965;-70
2023/09/12 12:40:12;;;;;;;;;;;27.00;66.10;;;;;;5022246;28;20003;-70
2023/09/12 12:42:47;;;;;;;;;;;26.90;65.60;;;;;;5022150;28;19929;-71
2023/09/12 12:45:23;;;;;;;;;;;26.90;64.70;;;;;;5022852;28;20020;-71
2023/09/12 12:47:58;;;;;;;;;;;27.00;65.20;;;;;;5025756;28;19962;-70
2023/09/12 12:50:36;;;;;;;;;;;27.00;65.40;;;;;;5023958;28;20016;-71
2023/09/12 12:53:10;;;;;;;;;;;27.00;64.80;;;;;;5024301;28;19929;-71
2023/09/12 12:55:44;;;;;;;;;;;27.00;65.50;;;;;;5025172;28;20023;-70
2023/09/12 12:58:17;;;;;;;;;;;27.00;65.80;;;;;;5024708;28;19932;-70
2023/09/12 13:00:51;;;;;;;;;;;26.90;65.00;;;;;;5025682;28;19933;-70
2023/09/12 13:03:18;;;;;;;;;;;26.90;65.90;;;;;;5016083;28;19930;-69
2023/09/12 13:05:51;;;;;;;;;;;26.90;65.30;;;;;;5025445;28;20411;-70
2023/09/12 13:08:25;;;;;;;;;;;26.90;65.90;;;;;;5023201;28;19940;-70
2023/09/12 13:10:59;;;;;;;;;;;27.00;65.30;;;;;;5021885;28;20568;-70
2023/09/12 13:13:32;;;;;;;;;;;27.00;65.60;;;;;;5022759;28;20398;-70
2023/09/12 13:16:09;;;;;;;;;;;27.00;64.80;;;;;;5023099;28;19925;-70
2023/09/12 13:18:42;;;;;;;;;;;27.00;65.60;;;;;;5021380;28;19949;-70
2023/09/12 13:21:15;;;;;;;;;;;27.00;64.90;;;;;;5023318;28;19968;-70
2023/09/12 13:23:48;;;;;;;;;;;27.00;65.00;;;;;;5026128;28;19929;-70
2023/09/12 13:26:21;;;;;;;;;;;27.00;65.50;;;;;;5022841;28;20003;-70
2023/09/12 13:28:54;;;;;;;;;;;27.00;65.30;;;;;;5024023;28;20522;-70
2023/09/12 13:31:28;;;;;;;;;;;27.00;64.70;;;;;;5022952;28;20374;-70
2023/09/12 13:34:01;;;;;;;;;;;27.00;65.50;;;;;;5021491;28;19925;-70
2023/09/12 13:36:34;;;;;;;;;;;27.00;65.60;;;;;;5022920;28;20010;-70
2023/09/12 13:39:08;;;;;;;;;;;27.00;65.30;;;;;;5021759;28;19929;-70
2023/09/12 13:41:41;;;;;;;;;;;27.00;65.30;;;;;;5021585;28;19961;-71
2023/09/12 13:44:07;;;;;;;;;;;26.90;66.20;;;;;;5024378;28;19932;-70
2023/09/12 13:46:44;;;;;;;;;;;26.90;66.10;;;;;;5023460;28;20431;-71
2023/09/12 13:49:17;;;;;;;;;;;26.90;65.20;;;;;;5023888;28;19952;-70
2023/09/12 13:51:43;;;;;;;;;;;26.90;65.90;;;;;;5022984;28;19929;-69
2023/09/12 13:54:17;;;;;;;;;;;26.90;66.50;;;;;;5022693;28;19925;-68
2023/09/12 13:56:50;;;;;;;;;;;26.90;66.00;;;;;;5019510;28;19932;-69
2023/09/12 13:59:29;;;;;;;;;;;26.90;65.60;;;;;;5020979;28;19948;-69
2023/09/12 14:02:04;;;;;;;;;;;26.80;65.80;;;;;;5019604;28;19928;-69
2023/09/12 14:04:38;;;;;;;;;;;26.80;65.90;;;;;;5021103;28;19925;-68
2023/09/12 14:07:11;;;;;;;;;;;26.70;66.50;;;;;;5019120;28;20396;-69
2023/09/12 14:09:44;;;;;;;;;;;26.70;66.30;;;;;;5021191;28;19940;-69
2023/09/12 14:12:17;;;;;;;;;;;26.80;66.10;;;;;;5021004;28;19929;-69
2023/09/12 14:14:50;;;;;;;;;;;27.00;65.90;;;;;;5022139;28;19925;-69
2023/09/12 14:17:24;;;;;;;;;;;26.90;66.40;;;;;;5015833;28;19929;-70
2023/09/12 14:19:58;;;;;;;;;;;26.80;66.30;;;;;;5022466;28;20318;-69
2023/09/12 14:22:31;;;;;;;;;;;26.80;66.10;;;;;;5021362;28;20415;-67
2023/09/12 14:25:05;;;;;;;;;;;26.70;66.60;;;;;;5023070;28;20392;-67
2023/09/12 14:27:38;;;;;;;;;;;26.70;66.90;;;;;;5020388;28;19926;-68
2023/09/12 14:30:12;;;;;;;;;;;26.60;66.90;;;;;;5020525;28;19929;-67
2023/09/12 14:32:47;;;;;;;;;;;26.60;67.10;;;;;;5020101;28;20335;-68
2023/09/12 14:35:21;;;;;;;;;;;26.60;67.20;;;;;;5020081;28;19925;-68
2023/09/12 14:37:54;;;;;;;;;;;26.50;66.70;;;;;;5022526;28;19952;-68
2023/09/12 14:40:27;;;;;;;;;;;26.50;67.10;;;;;;5023394;28;19940;-66
2023/09/12 14:43:01;;;;;;;;;;;26.40;67.40;;;;;;5019155;28;19972;-68
2023/09/12 14:45:34;;;;;;;;;;;26.40;67.10;;;;;;5021733;28;19964;-68
2023/09/12 14:48:08;;;;;;;;;;;26.40;67.10;;;;;;5021872;28;19933;-69
2023/09/12 14:50:35;;;;;;;;;;;26.40;67.50;;;;;;5024341;28;19925;-69
2023/09/12 14:53:08;;;;;;;;;;;26.40;67.20;;;;;;5014764;28;19941;-70
2023/09/12 14:55:41;;;;;;;;;;;26.40;67.40;;;;;;5020572;28;19929;-70
2023/09/12 14:58:14;;;;;;;;;;;26.40;67.30;;;;;;5020561;28;19991;-69